Time;durP1;ratioP1;P1;durP2;ratioP2;P2;SDS_P1;SDS_P2;PMS_P1;PMS_P2;Temp;Humidity;BMP_temperature;BMP_pressure;BME280_temperature;BME280_humidity;BME280_pressure;Samples;Min_cycle;Max_cycle;Signal;HPM_P1;HPM_P2
2024/03/20 00:01:32;;;;;;;14.10;4.28;;;11.70;99.90;;;;;;4963946;28;20034;-62
2024/03/20 00:03:59;;;;;;;10.68;3.53;;;11.70;99.90;;;;;;4972932;28;20031;-63
2024/03/20 00:06:24;;;;;;;9.20;3.60;;;11.70;99.90;;;;;;4969698;28;20128;-63
2024/03/20 00:08:50;;;;;;;9.48;3.45;;;11.60;99.90;;;;;;4979973;28;20118;-63
2024/03/20 00:11:15;;;;;;;8.65;3.30;;;11.60;99.90;;;;;;4974420;28;20030;-63
2024/03/20 00:13:42;;;;;;;9.93;3.10;;;11.60;99.90;;;;;;4979456;28;20155;-63
2024/03/20 00:16:10;;;;;;;9.63;3.28;;;11.60;99.90;;;;;;4966585;28;20530;-63
2024/03/20 00:18:37;;;;;;;8.02;3.05;;;11.60;99.90;;;;;;4974462;28;20077;-64
2024/03/20 00:21:02;;;;;;;9.15;2.95;;;11.50;99.90;;;;;;4972452;28;20059;-63
2024/03/20 00:23:28;;;;;;;7.47;2.85;;;11.50;99.90;;;;;;4975884;28;20483;-63
2024/03/20 00:25:54;;;;;;;8.40;3.08;;;11.50;99.90;;;;;;4972257;28;20027;-63
2024/03/20 00:28:19;;;;;;;11.88;3.50;;;11.50;99.90;;;;;;4962707;28;20114;-63
2024/03/20 00:30:45;;;;;;;7.80;2.83;;;11.50;99.90;;;;;;4978448;28;20502;-63
2024/03/20 00:33:11;;;;;;;8.93;3.20;;;11.40;99.90;;;;;;4976306;28;20412;-63
2024/03/20 00:35:37;;;;;;;8.75;3.10;;;11.40;99.90;;;;;;4979195;28;20088;-63
2024/03/20 00:38:04;;;;;;;8.05;2.70;;;11.40;99.90;;;;;;4975784;28;20390;-62
2024/03/20 00:40:30;;;;;;;8.15;2.92;;;11.40;99.90;;;;;;4968411;28;20023;-63
2024/03/20 00:42:56;;;;;;;10.27;2.90;;;11.40;99.90;;;;;;4978331;28;20019;-62
2024/03/20 00:45:21;;;;;;;7.20;2.63;;;11.30;99.90;;;;;;4975152;28;20076;-63
2024/03/20 00:47:47;;;;;;;8.60;3.35;;;11.30;99.90;;;;;;4981608;28;20076;-63
2024/03/20 00:50:12;;;;;;;7.65;2.85;;;11.30;99.90;;;;;;4970596;28;20450;-63
2024/03/20 00:52:38;;;;;;;8.95;2.90;;;11.20;99.90;;;;;;4977547;28;20065;-63
2024/03/20 00:55:04;;;;;;;9.00;2.90;;;11.10;99.90;;;;;;4969846;28;20034;-63
2024/03/20 00:57:30;;;;;;;8.57;3.00;;;11.10;99.90;;;;;;4975911;28;20023;-62
2024/03/20 00:59:56;;;;;;;9.10;2.95;;;11.10;99.90;;;;;;4978322;28;20093;-63
2024/03/20 01:02:21;;;;;;;7.72;2.90;;;11.00;99.90;;;;;;4975752;28;20030;-62
2024/03/20 01:04:47;;;;;;;7.40;2.90;;;11.00;99.90;;;;;;4973898;28;20035;-63
2024/03/20 01:07:13;;;;;;;8.05;3.13;;;11.10;99.90;;;;;;4963713;28;20053;-64
2024/03/20 01:09:38;;;;;;;8.18;2.95;;;11.00;99.90;;;;;;4990822;28;20045;-63
2024/03/20 01:12:04;;;;;;;8.43;3.15;;;11.10;99.90;;;;;;4975643;28;20068;-63
2024/03/20 01:14:30;;;;;;;9.57;3.30;;;11.10;99.90;;;;;;4975009;28;20104;-63
2024/03/20 01:16:55;;;;;;;8.30;3.10;;;11.00;99.90;;;;;;4977168;28;20543;-62
2024/03/20 01:19:21;;;;;;;9.43;2.90;;;11.00;99.90;;;;;;4976166;28;20064;-63
2024/03/20 01:21:47;;;;;;;8.65;2.92;;;11.00;99.90;;;;;;4982597;28;20065;-62
2024/03/20 01:24:12;;;;;;;9.15;3.28;;;10.90;99.90;;;;;;4957704;28;20036;-63
2024/03/20 01:26:38;;;;;;;10.32;3.17;;;10.90;99.90;;;;;;4979885;28;20151;-62
2024/03/20 01:29:04;;;;;;;7.57;2.72;;;10.90;99.90;;;;;;4978199;28;20079;-62
2024/03/20 01:31:30;;;;;;;8.02;3.00;;;10.90;99.90;;;;;;4982706;28;20030;-62
2024/03/20 01:33:56;;;;;;;7.45;2.67;;;10.90;99.90;;;;;;4980340;28;20430;-62
2024/03/20 01:36:21;;;;;;;7.18;2.70;;;10.90;99.90;;;;;;4998859;28;20026;-62
2024/03/20 01:38:47;;;;;;;8.95;2.90;;;10.90;99.90;;;;;;4978839;28;20033;-62
2024/03/20 01:41:13;;;;;;;7.63;3.10;;;10.80;99.90;;;;;;4978740;28;20505;-63
2024/03/20 01:43:39;;;;;;;7.15;2.70;;;10.80;99.90;;;;;;4981516;28;20035;-62
2024/03/20 01:46:32;;;;;;;8.23;2.88;;;10.80;99.90;;;;;;4979138;28;20049;-63
2024/03/20 01:48:59;;;;;;;7.13;3.00;;;10.70;99.90;;;;;;4985675;28;20043;-63
2024/03/20 01:51:28;;;;;;;8.35;3.10;;;10.70;99.90;;;;;;4980747;28;20031;-62
2024/03/20 01:53:56;;;;;;;9.07;3.10;;;10.70;99.90;;;;;;4978602;28;20091;-62
2024/03/20 01:56:22;;;;;;;9.45;3.17;;;10.70;99.90;;;;;;4977038;28;20307;-63
2024/03/20 01:58:47;;;;;;;9.20;3.10;;;10.70;99.90;;;;;;4981089;28;20529;-62
2024/03/20 02:01:13;;;;;;;8.27;2.78;;;10.70;99.90;;;;;;4977982;28;20028;-62
2024/03/20 02:03:39;;;;;;;10.13;2.88;;;10.70;99.90;;;;;;4974138;28;20035;-63
2024/03/20 02:06:04;;;;;;;8.48;2.97;;;10.60;99.90;;;;;;4978878;28;20123;-62
2024/03/20 02:08:31;;;;;;;9.05;3.22;;;10.60;99.90;;;;;;4978728;28;20030;-62
2024/03/20 02:10:56;;;;;;;11.90;3.08;;;10.60;99.90;;;;;;4978590;28;20038;-62
2024/03/20 02:13:22;;;;;;;7.80;2.80;;;10.60;99.90;;;;;;4979131;28;20137;-62
2024/03/20 02:15:48;;;;;;;7.70;2.90;;;10.60;99.90;;;;;;4978322;28;20381;-62
2024/03/20 02:18:14;;;;;;;8.52;3.03;;;10.70;99.90;;;;;;4980054;28;20084;-63
2024/03/20 02:20:39;;;;;;;8.40;3.13;;;10.70;99.90;;;;;;4977621;28;20479;-62
2024/03/20 02:23:05;;;;;;;8.77;3.45;;;10.60;99.90;;;;;;4979107;28;20124;-62
2024/03/20 02:25:31;;;;;;;7.53;2.83;;;10.60;99.90;;;;;;4976886;28;20064;-62
2024/03/20 02:27:57;;;;;;;7.53;2.90;;;10.60;99.90;;;;;;4979551;28;20106;-63
2024/03/20 02:30:24;;;;;;;9.10;2.90;;;10.50;99.90;;;;;;4979028;28;20014;-62
2024/03/20 02:32:50;;;;;;;7.82;2.88;;;10.40;99.90;;;;;;4978750;28;20034;-63
2024/03/20 02:35:16;;;;;;;7.13;3.00;;;10.30;99.90;;;;;;4979646;28;20391;-63
2024/03/20 02:37:41;;;;;;;8.48;3.22;;;10.10;99.90;;;;;;4993566;28;20031;-63
2024/03/20 02:40:07;;;;;;;11.50;3.17;;;10.00;99.90;;;;;;4976824;28;20034;-62
2024/03/20 02:42:33;;;;;;;8.80;3.30;;;9.90;99.90;;;;;;4979184;28;20026;-62
2024/03/20 02:44:59;;;;;;;10.32;3.40;;;9.60;99.90;;;;;;4978402;28;20166;-64
2024/03/20 02:47:25;;;;;;;11.35;4.18;;;9.50;99.90;;;;;;4978857;28;20031;-63
2024/03/20 02:49:53;;;;;;;10.07;3.67;;;9.40;99.90;;;;;;4985467;28;20060;-63
2024/03/20 02:52:22;;;;;;;10.77;3.55;;;9.30;99.90;;;;;;4976238;28;20023;-62
2024/03/20 02:54:48;;;;;;;8.65;3.28;;;9.20;99.90;;;;;;4978508;28;20037;-63
2024/03/20 02:57:14;;;;;;;9.07;3.20;;;9.20;99.90;;;;;;4977609;28;20386;-62
2024/03/20 02:59:39;;;;;;;8.65;3.53;;;9.30;99.90;;;;;;4977498;28;20100;-62
2024/03/20 03:02:05;;;;;;;7.47;3.25;;;9.30;99.90;;;;;;4980476;28;20046;-62
2024/03/20 03:04:31;;;;;;;8.38;3.22;;;9.30;99.90;;;;;;4976814;28;20532;-63
2024/03/20 03:06:56;;;;;;;10.85;3.85;;;9.30;99.90;;;;;;4977345;28;20114;-63
2024/03/20 03:09:22;;;;;;;8.15;3.15;;;9.40;99.90;;;;;;4978743;28;20063;-63
2024/03/20 03:11:48;;;;;;;9.32;3.35;;;9.30;99.90;;;;;;4978959;28;20682;-63
2024/03/20 03:14:15;;;;;;;13.13;3.60;;;9.50;99.90;;;;;;4977155;28;20477;-63
2024/03/20 03:16:41;;;;;;;9.45;3.15;;;9.60;99.90;;;;;;4980224;28;20031;-63
2024/03/20 03:19:07;;;;;;;9.80;3.47;;;9.80;99.90;;;;;;4975881;28;20057;-62
2024/03/20 03:21:34;;;;;;;6.90;2.95;;;9.90;99.90;;;;;;4972873;28;20023;-63
2024/03/20 03:23:59;;;;;;;8.63;3.30;;;10.00;99.90;;;;;;4980347;28;20023;-62
2024/03/20 03:26:25;;;;;;;10.13;3.70;;;10.00;99.90;;;;;;4975408;28;20072;-63
2024/03/20 03:28:51;;;;;;;7.53;2.90;;;10.00;99.90;;;;;;4978914;28;20034;-63
2024/03/20 03:31:17;;;;;;;7.43;2.92;;;10.00;99.90;;;;;;4978387;28;20034;-63
2024/03/20 03:33:42;;;;;;;8.70;3.33;;;9.90;99.90;;;;;;4981998;28;20533;-62
2024/03/20 03:36:09;;;;;;;9.73;3.65;;;9.80;99.90;;;;;;4991548;28;20030;-63
2024/03/20 03:38:36;;;;;;;11.68;3.70;;;9.80;99.90;;;;;;4976774;28;20019;-63
2024/03/20 03:41:02;;;;;;;7.53;3.25;;;9.70;99.90;;;;;;4974037;28;20524;-62
2024/03/20 03:43:29;;;;;;;9.02;3.53;;;9.60;99.90;;;;;;4979181;28;20027;-63
2024/03/20 03:45:55;;;;;;;9.50;3.58;;;9.60;99.90;;;;;;4979907;28;20042;-63
2024/03/20 03:48:21;;;;;;;10.77;3.33;;;9.50;99.90;;;;;;4977419;28;20026;-64
2024/03/20 03:50:50;;;;;;;8.45;3.50;;;9.40;99.90;;;;;;4979594;28;20370;-63
2024/03/20 03:53:17;;;;;;;8.77;3.30;;;9.40;99.90;;;;;;4977786;28;20030;-63
2024/03/20 03:55:42;;;;;;;7.93;3.60;;;9.40;99.90;;;;;;4976321;28;20031;-64
2024/03/20 03:58:08;;;;;;;11.13;3.75;;;9.40;99.90;;;;;;4978798;28;20030;-63
2024/03/20 04:00:35;;;;;;;9.45;3.95;;;9.40;99.90;;;;;;4976737;28;20023;-63
2024/03/20 04:03:01;;;;;;;7.68;3.42;;;9.50;99.90;;;;;;4978344;28;20301;-63
2024/03/20 04:05:27;;;;;;;9.85;3.83;;;9.50;99.90;;;;;;4976151;28;20129;-63
2024/03/20 04:07:53;;;;;;;9.38;3.80;;;9.40;99.90;;;;;;4975790;28;20023;-63
2024/03/20 04:10:19;;;;;;;8.13;3.60;;;9.30;99.90;;;;;;4977848;28;20023;-63
2024/03/20 04:12:45;;;;;;;9.60;3.67;;;9.20;99.90;;;;;;4975463;28;20031;-63
2024/03/20 04:15:11;;;;;;;10.32;3.90;;;9.10;99.90;;;;;;4977367;28;20050;-63
2024/03/20 04:17:36;;;;;;;10.77;3.92;;;9.10;99.90;;;;;;4976955;28;20114;-63
2024/03/20 04:20:03;;;;;;;10.50;3.85;;;9.20;99.90;;;;;;4979428;28;20073;-63
2024/03/20 04:22:29;;;;;;;10.55;4.00;;;9.30;99.90;;;;;;4974768;28;20447;-64
2024/03/20 04:24:54;;;;;;;8.10;3.47;;;9.30;99.90;;;;;;4979518;28;20069;-64
2024/03/20 04:27:20;;;;;;;12.85;4.20;;;9.40;99.90;;;;;;4974961;28;20034;-63
2024/03/20 04:29:46;;;;;;;9.20;4.15;;;9.30;99.90;;;;;;4977511;28;20058;-63
2024/03/20 04:32:12;;;;;;;9.77;3.95;;;9.30;99.90;;;;;;4976027;28;20568;-63
2024/03/20 04:34:37;;;;;;;9.70;3.42;;;9.20;99.90;;;;;;4976639;28;20031;-63
2024/03/20 04:37:03;;;;;;;9.88;4.05;;;9.10;99.90;;;;;;4987406;28;20026;-63
2024/03/20 04:39:29;;;;;;;8.90;3.58;;;9.00;99.90;;;;;;4977606;28;20023;-64
2024/03/20 04:41:56;;;;;;;10.65;4.25;;;9.00;99.90;;;;;;4975972;28;20026;-63
2024/03/20 04:44:21;;;;;;;11.48;3.65;;;9.10;99.90;;;;;;4978271;28;20114;-63
2024/03/20 04:46:47;;;;;;;9.90;4.25;;;9.10;99.90;;;;;;4977340;28;20429;-64
2024/03/20 04:49:13;;;;;;;10.73;4.55;;;9.10;99.90;;;;;;4994943;28;20158;-63
2024/03/20 04:51:38;;;;;;;9.80;4.35;;;9.10;99.90;;;;;;4979394;28;20030;-64
2024/03/20 04:54:04;;;;;;;10.95;4.85;;;9.20;99.90;;;;;;4981336;28;20485;-63
2024/03/20 04:56:30;;;;;;;13.13;4.38;;;9.20;99.90;;;;;;4977122;28;20397;-63
2024/03/20 04:58:55;;;;;;;11.10;3.90;;;9.30;99.90;;;;;;4982802;28;20504;-62
2024/03/20 05:01:21;;;;;;;12.52;4.60;;;9.30;99.90;;;;;;4978793;28;20034;-63
2024/03/20 05:03:47;;;;;;;11.23;4.25;;;9.30;99.90;;;;;;4981147;28;20023;-62
2024/03/20 05:06:13;;;;;;;10.43;3.78;;;9.20;99.90;;;;;;4977605;28;20027;-62
2024/03/20 05:08:38;;;;;;;10.20;4.32;;;9.10;99.90;;;;;;4980459;28;20038;-62
2024/03/20 05:11:05;;;;;;;11.25;5.05;;;8.90;99.90;;;;;;4989168;28;20034;-62
2024/03/20 05:13:30;;;;;;;10.48;4.50;;;8.70;99.90;;;;;;4978845;28;20042;-63
2024/03/20 05:15:56;;;;;;;11.07;4.57;;;8.50;99.90;;;;;;4981746;28;20054;-62
2024/03/20 05:18:22;;;;;;;11.35;4.85;;;8.50;99.90;;;;;;4976474;28;20030;-62
2024/03/20 05:20:48;;;;;;;13.18;5.03;;;8.40;99.90;;;;;;4978883;28;20034;-62
2024/03/20 05:23:13;;;;;;;12.75;4.80;;;8.30;99.90;;;;;;4980302;28;20037;-63
2024/03/20 05:25:40;;;;;;;13.68;4.93;;;8.20;99.90;;;;;;4978887;28;20096;-63
2024/03/20 05:28:06;;;;;;;11.18;4.57;;;8.20;99.90;;;;;;4979638;28;20065;-62
2024/03/20 05:30:32;;;;;;;14.52;5.03;;;8.00;99.90;;;;;;4976659;28;20719;-63
2024/03/20 05:32:57;;;;;;;13.40;5.13;;;8.00;99.90;;;;;;4981126;28;20030;-63
2024/03/20 05:35:23;;;;;;;10.02;4.60;;;7.90;99.90;;;;;;4979376;28;20054;-62
2024/03/20 05:37:49;;;;;;;11.82;5.03;;;7.90;99.90;;;;;;4980800;28;20023;-63
2024/03/20 05:40:15;;;;;;;11.25;4.45;;;7.90;99.90;;;;;;4974808;28;20478;-62
2024/03/20 05:42:41;;;;;;;11.10;4.90;;;8.00;99.90;;;;;;4969149;28;20038;-63
2024/03/20 05:45:08;;;;;;;12.30;4.85;;;8.10;99.90;;;;;;4967090;28;20023;-62
2024/03/20 05:47:34;;;;;;;13.10;4.70;;;8.20;99.90;;;;;;4973984;28;20857;-63
2024/03/20 05:50:03;;;;;;;10.70;4.55;;;8.20;99.90;;;;;;4991473;28;20014;-62
2024/03/20 05:52:28;;;;;;;13.57;5.40;;;8.20;99.90;;;;;;4976270;28;20019;-62
2024/03/20 05:54:56;;;;;;;11.27;5.03;;;8.20;99.90;;;;;;4972102;28;20027;-63
2024/03/20 05:57:22;;;;;;;11.77;4.80;;;8.20;99.90;;;;;;4975286;28;20382;-62
2024/03/20 05:59:47;;;;;;;10.90;4.43;;;8.20;99.90;;;;;;4974775;28;20030;-62
2024/03/20 06:02:13;;;;;;;12.25;4.70;;;8.20;99.90;;;;;;4973396;28;20026;-62
2024/03/20 06:04:39;;;;;;;11.27;5.22;;;8.30;99.90;;;;;;4975324;28;20022;-63
2024/03/20 06:07:04;;;;;;;13.15;4.95;;;8.50;99.90;;;;;;4970659;28;20026;-63
2024/03/20 06:09:32;;;;;;;11.50;4.57;;;8.40;99.90;;;;;;4965697;28;20039;-62
2024/03/20 06:11:58;;;;;;;13.10;4.68;;;8.40;99.90;;;;;;4971651;28;20027;-62
2024/03/20 06:14:25;;;;;;;10.48;4.38;;;8.40;99.90;;;;;;4971447;28;20050;-63
2024/03/20 06:16:51;;;;;;;12.90;3.97;;;;;;;;;;4973518;28;20066;-62
2024/03/20 06:19:16;;;;;;;9.73;4.35;;;8.50;99.90;;;;;;4974746;28;20053;-61
2024/03/20 06:21:42;;;;;;;10.43;4.28;;;8.60;99.90;;;;;;4970605;28;20045;-61
2024/03/20 06:24:08;;;;;;;12.10;4.10;;;8.90;99.90;;;;;;4968306;28;20142;-62
2024/03/20 06:26:34;;;;;;;11.73;4.03;;;9.10;99.90;;;;;;4968686;28;20456;-62
2024/03/20 06:28:59;;;;;;;11.57;4.30;;;9.20;99.90;;;;;;4963498;28;20478;-61
2024/03/20 06:31:25;;;;;;;10.85;4.60;;;9.40;99.90;;;;;;4972836;28;20043;-63
2024/03/20 06:33:51;;;;;;;8.73;3.85;;;9.40;99.90;;;;;;4971115;28;20030;-61
2024/03/20 06:36:17;;;;;;;11.55;4.60;;;9.50;99.90;;;;;;4975752;28;20103;-62
2024/03/20 06:38:45;;;;;;;12.25;4.00;;;9.60;99.90;;;;;;4970345;28;20030;-61
2024/03/20 06:41:13;;;;;;;10.63;4.63;;;9.80;99.90;;;;;;4967862;28;20068;-62
2024/03/20 06:43:38;;;;;;;11.18;4.00;;;9.80;99.90;;;;;;4968498;28;20106;-62
2024/03/20 06:46:08;;;;;;;10.27;4.35;;;9.90;99.90;;;;;;4969587;28;20241;-62
2024/03/20 06:48:33;;;;;;;12.07;4.40;;;10.00;99.90;;;;;;4974836;28;20122;-62
2024/03/20 06:50:59;;;;;;;13.73;4.20;;;10.10;99.90;;;;;;4971873;28;20172;-62
2024/03/20 06:53:28;;;;;;;10.85;4.32;;;10.10;99.90;;;;;;4975221;28;20049;-62
2024/03/20 06:55:55;;;;;;;12.07;4.03;;;10.20;99.90;;;;;;4977825;28;20054;-62
2024/03/20 06:58:23;;;;;;;11.50;4.97;;;10.30;99.90;;;;;;4972194;28;20132;-61
2024/03/20 07:00:49;;;;;;;10.02;4.28;;;10.40;99.90;;;;;;4974415;28;20038;-62
2024/03/20 07:03:16;;;;;;;11.10;4.82;;;10.60;99.90;;;;;;4966638;28;20023;-61
2024/03/20 07:05:42;;;;;;;14.75;5.28;;;10.60;99.90;;;;;;4967171;28;20030;-62
2024/03/20 07:08:09;;;;;;;11.23;4.78;;;10.80;99.90;;;;;;4978276;28;20206;-62
2024/03/20 07:10:39;;;;;;;11.35;4.80;;;10.90;99.90;;;;;;4976030;28;20473;-62
2024/03/20 07:13:05;;;;;;;10.93;4.67;;;11.00;99.90;;;;;;4977646;28;20543;-62
2024/03/20 07:15:32;;;;;;;9.90;4.05;;;11.10;99.90;;;;;;4975823;28;20066;-62
2024/03/20 07:17:59;;;;;;;10.32;4.30;;;11.20;99.90;;;;;;4974881;28;20525;-63
2024/03/20 07:20:25;;;;;;;11.18;4.57;;;11.30;99.90;;;;;;4974761;28;20560;-64
2024/03/20 07:22:50;;;;;;;10.27;4.32;;;11.50;99.90;;;;;;4974002;28;20035;-63
2024/03/20 07:25:16;;;;;;;11.55;4.35;;;11.60;99.90;;;;;;4972602;28;20027;-61
2024/03/20 07:27:42;;;;;;;9.80;3.75;;;11.70;99.90;;;;;;4974393;28;20038;-63
2024/03/20 07:30:08;;;;;;;11.77;4.43;;;11.90;99.90;;;;;;4975294;28;20031;-62
2024/03/20 07:32:35;;;;;;;10.20;4.28;;;12.00;99.90;;;;;;4961532;28;20026;-62
2024/03/20 07:35:02;;;;;;;8.90;4.22;;;12.10;99.90;;;;;;4958527;28;20745;-62
2024/03/20 07:37:28;;;;;;;11.13;4.40;;;12.20;99.90;;;;;;4985933;28;20045;-63
2024/03/20 07:39:54;;;;;;;10.60;4.40;;;12.30;99.90;;;;;;4969110;28;20101;-62
2024/03/20 07:42:19;;;;;;;11.45;4.40;;;12.40;99.90;;;;;;4966824;28;20109;-62
2024/03/20 07:44:47;;;;;;;9.88;4.22;;;12.50;99.90;;;;;;4964801;28;20043;-62
2024/03/20 07:47:13;;;;;;;11.32;4.75;;;12.60;99.90;;;;;;4970650;28;20383;-62
2024/03/20 07:49:39;;;;;;;10.82;3.90;;;12.70;99.90;;;;;;4958541;28;20482;-62
2024/03/20 07:52:05;;;;;;;10.57;3.90;;;12.70;99.90;;;;;;4959298;28;20039;-62
2024/03/20 07:54:32;;;;;;;9.40;3.95;;;12.80;99.90;;;;;;4959070;28;20054;-62
2024/03/20 07:56:58;;;;;;;10.15;4.55;;;12.90;99.90;;;;;;4966572;28;20147;-62
2024/03/20 07:59:24;;;;;;;9.20;4.07;;;13.00;99.90;;;;;;4970743;28;20037;-62
2024/03/20 08:01:52;;;;;;;10.30;4.07;;;13.20;99.90;;;;;;4977909;28;20369;-62
2024/03/20 08:04:18;;;;;;;10.85;3.97;;;13.30;99.90;;;;;;4967499;28;20066;-62
2024/03/20 08:06:44;;;;;;;11.48;4.38;;;13.50;99.90;;;;;;4972127;28;20038;-62
2024/03/20 08:09:11;;;;;;;11.20;4.05;;;13.60;99.90;;;;;;4965905;28;20084;-62
2024/03/20 08:11:37;;;;;;;13.00;4.13;;;13.70;99.90;;;;;;4966159;28;20038;-62
2024/03/20 08:14:08;;;;;;;11.70;4.30;;;13.80;99.90;;;;;;4964113;28;20042;-62
2024/03/20 08:16:40;;;;;;;9.88;4.43;;;13.90;99.90;;;;;;4964609;28;20039;-62
2024/03/20 08:19:06;;;;;;;9.05;4.07;;;14.10;99.90;;;;;;4970865;28;20019;-62
2024/03/20 08:21:32;;;;;;;9.40;4.40;;;14.20;99.90;;;;;;4965641;28;20026;-62
2024/03/20 08:23:59;;;;;;;8.45;4.00;;;14.30;99.90;;;;;;4968593;28;20035;-62
2024/03/20 08:26:25;;;;;;;10.70;3.95;;;14.40;99.90;;;;;;4967987;28;20057;-62
2024/03/20 08:28:51;;;;;;;10.05;4.22;;;14.50;99.90;;;;;;4968362;28;20037;-63
2024/03/20 08:31:17;;;;;;;11.18;4.43;;;14.60;99.90;;;;;;4966530;28;20034;-62
2024/03/20 08:33:44;;;;;;;11.52;4.50;;;14.60;99.90;;;;;;4960062;28;20084;-62
2024/03/20 08:36:10;;;;;;;8.98;4.03;;;14.80;99.90;;;;;;4969602;28;20443;-62
2024/03/20 08:38:36;;;;;;;9.70;4.28;;;15.10;99.90;;;;;;4963666;28;20107;-63
2024/03/20 08:41:05;;;;;;;12.15;3.97;;;15.20;99.90;;;;;;4969462;28;20037;-62
2024/03/20 08:43:34;;;;;;;10.02;3.80;;;15.50;99.90;;;;;;4963143;28;20025;-62
2024/03/20 08:46:00;;;;;;;11.55;4.65;;;15.80;99.90;;;;;;4966730;28;20039;-62
2024/03/20 08:48:28;;;;;;;10.55;3.70;;;16.20;99.90;;;;;;4965440;28;20450;-63
2024/03/20 08:50:54;;;;;;;8.57;3.63;;;16.70;99.90;;;;;;4974794;28;20041;-62
2024/03/20 08:53:20;;;;;;;9.30;3.70;;;17.00;99.90;;;;;;4967847;28;20457;-62
2024/03/20 08:55:47;;;;;;;7.88;3.30;;;17.20;99.90;;;;;;4971215;28;20027;-63
2024/03/20 08:58:13;;;;;;;9.48;3.45;;;17.40;99.90;;;;;;4968439;28;20050;-62
2024/03/20 09:00:39;;;;;;;7.57;2.97;;;17.80;99.90;;;;;;4969493;28;20055;-63
2024/03/20 09:03:04;;;;;;;8.60;3.33;;;18.10;99.90;;;;;;4963251;28;20507;-63
2024/03/20 09:05:31;;;;;;;7.93;3.10;;;18.30;99.90;;;;;;4966631;28;20111;-63
2024/03/20 09:07:57;;;;;;;10.90;3.50;;;18.50;99.80;;;;;;4967784;28;20113;-63
2024/03/20 09:10:23;;;;;;;9.75;3.35;;;18.60;99.60;;;;;;4964222;28;20178;-62
2024/03/20 09:12:48;;;;;;;9.05;3.60;;;18.90;98.20;;;;;;4955828;28;20141;-63
2024/03/20 09:15:14;;;;;;;13.10;3.30;;;19.10;97.80;;;;;;4963674;28;20346;-63
2024/03/20 09:17:40;;;;;;;9.18;2.97;;;19.40;97.90;;;;;;4965650;28;20088;-63
2024/03/20 09:20:15;;;;;;;10.57;3.05;;;19.80;95.90;;;;;;4966269;28;20038;-63
2024/03/20 09:22:45;;;;;;;9.18;2.90;;;20.10;94.60;;;;;;4972990;28;20110;-63
2024/03/20 09:25:11;;;;;;;8.65;2.90;;;20.30;93.70;;;;;;4974733;28;20466;-63
2024/03/20 09:27:37;;;;;;;8.05;2.92;;;20.40;92.90;;;;;;4967914;28;20110;-63
2024/03/20 09:30:03;;;;;;;7.70;3.05;;;20.60;92.30;;;;;;4966333;28;20160;-63
2024/03/20 09:32:32;;;;;;;9.43;2.83;;;20.80;91.60;;;;;;4963069;28;20348;-63
2024/03/20 09:35:00;;;;;;;7.50;2.80;;;20.90;90.10;;;;;;4964261;28;20034;-62
2024/03/20 09:37:27;;;;;;;7.18;2.53;;;20.80;89.90;;;;;;4979931;28;20027;-62
2024/03/20 09:39:53;;;;;;;7.57;2.60;;;20.30;90.20;;;;;;4971167;28;20023;-63
2024/03/20 09:42:22;;;;;;;8.32;2.50;;;20.10;91.30;;;;;;4971977;28;20022;-62
2024/03/20 09:44:49;;;;;;;9.48;2.75;;;19.70;92.80;;;;;;4975720;28;20041;-62
2024/03/20 09:47:15;;;;;;;7.13;2.53;;;19.60;92.80;;;;;;4977335;28;20080;-62
2024/03/20 09:49:41;;;;;;;8.63;2.35;;;19.60;92.40;;;;;;4962089;28;20494;-62
2024/03/20 09:52:08;;;;;;;7.40;2.50;;;19.50;92.50;;;;;;4966026;28;20174;-62
2024/03/20 09:54:34;;;;;;;7.03;2.40;;;19.50;92.00;;;;;;4970892;28;20035;-62
2024/03/20 09:57:00;;;;;;;7.70;2.15;;;19.70;91.40;;;;;;4972134;28;20050;-62
2024/03/20 09:59:29;;;;;;;7.57;2.50;;;19.80;91.80;;;;;;4965923;28;20129;-62
2024/03/20 10:01:55;;;;;;;7.05;2.83;;;20.20;91.80;;;;;;4971887;28;20450;-63
2024/03/20 10:04:26;;;;;;;6.55;2.42;;;20.50;90.10;;;;;;4972010;28;20046;-62
2024/03/20 10:06:52;;;;;;;8.25;2.80;;;20.60;89.60;;;;;;4966978;28;20103;-62
2024/03/20 10:09:18;;;;;;;7.22;2.33;;;20.60;87.90;;;;;;4972467;28;20023;-62
2024/03/20 10:11:44;;;;;;;7.55;2.42;;;20.30;90.80;;;;;;4972433;28;20450;-62
2024/03/20 10:14:12;;;;;;;7.47;2.60;;;20.40;89.50;;;;;;4964030;28;20039;-62
2024/03/20 10:16:39;;;;;;;8.30;2.78;;;20.30;89.80;;;;;;4962956;28;20026;-62
2024/03/20 10:19:04;;;;;;;7.07;2.33;;;20.50;89.00;;;;;;4962620;28;20055;-62
2024/03/20 10:21:32;;;;;;;8.57;2.40;;;20.80;87.70;;;;;;4974190;28;20507;-62
2024/03/20 10:23:59;;;;;;;7.93;2.50;;;21.30;85.50;;;;;;4963540;28;20027;-62
2024/03/20 10:26:25;;;;;;;7.85;2.45;;;21.50;83.60;;;;;;4957921;28;20125;-62
2024/03/20 10:28:52;;;;;;;8.05;2.88;;;21.50;83.50;;;;;;4962151;28;20165;-62
2024/03/20 10:31:21;;;;;;;8.15;2.50;;;21.60;80.80;;;;;;4970497;28;20247;-62
2024/03/20 10:33:49;;;;;;;12.70;2.70;;;21.70;81.70;;;;;;4967546;28;20031;-62
2024/03/20 10:36:17;;;;;;;10.20;2.65;;;22.10;80.30;;;;;;4967399;28;20087;-62
2024/03/20 10:38:44;;;;;;;8.38;2.72;;;22.20;77.50;;;;;;4961263;28;20027;-63
2024/03/20 10:41:13;;;;;;;7.63;2.50;;;22.30;77.10;;;;;;4962415;28;20035;-62
2024/03/20 10:43:39;;;;;;;9.15;3.03;;;22.30;78.60;;;;;;4966417;28;20334;-62
2024/03/20 10:46:13;;;;;;;8.98;2.80;;;22.60;76.20;;;;;;4966966;28;20022;-62
2024/03/20 10:48:39;;;;;;;7.15;2.78;;;22.40;76.50;;;;;;4968797;28;20107;-61
2024/03/20 10:51:16;;;;;;;6.63;2.70;;;22.30;78.00;;;;;;4975548;28;20067;-62
2024/03/20 10:53:42;;;;;;;10.38;3.00;;;22.20;77.70;;;;;;4961184;28;20039;-62
2024/03/20 10:56:16;;;;;;;7.57;2.83;;;22.10;78.30;;;;;;4964556;28;20045;-61
2024/03/20 10:58:46;;;;;;;10.88;3.50;;;21.90;78.60;;;;;;4967432;28;20027;-61
2024/03/20 11:01:12;;;;;;;8.57;3.58;;;21.70;79.20;;;;;;4964045;28;20094;-61
2024/03/20 11:03:41;;;;;;;8.02;2.97;;;21.20;82.00;;;;;;4969293;28;20043;-61
2024/03/20 11:06:28;;;;;;;7.55;3.03;;;21.20;81.80;;;;;;4971501;28;20077;-61
2024/03/20 11:09:11;;;;;;;14.18;3.30;;;21.20;80.50;;;;;;4962648;28;20548;-61
2024/03/20 11:11:37;;;;;;;10.95;2.85;;;21.20;82.40;;;;;;4958949;28;20390;-61
2024/03/20 11:14:10;;;;;;;8.18;2.60;;;21.40;82.60;;;;;;4969531;28;20031;-61
2024/03/20 11:16:39;;;;;;;8.65;2.92;;;21.50;82.80;;;;;;4964368;28;20035;-61
2024/03/20 11:19:09;;;;;;;7.25;2.60;;;21.40;81.10;;;;;;4967229;28;20023;-62
2024/03/20 11:21:37;;;;;;;;;;;21.10;85.10;;;;;;4965569;28;20114;-62
2024/03/20 11:24:04;;;;;;;7.18;2.78;;;20.90;85.80;;;;;;4962071;28;19921;-61
2024/03/20 11:26:31;;;;;;;7.05;2.88;;;20.80;86.00;;;;;;4961167;28;20061;-61
2024/03/20 11:29:01;;;;;;;8.50;2.80;;;20.50;85.40;;;;;;4961046;28;20106;-61
2024/03/20 11:31:27;;;;;;;;;;;20.30;88.20;;;;;;4970667;28;20504;-61
2024/03/20 11:33:52;;;;;;;11.10;2.83;;;20.20;88.80;;;;;;4964181;28;19918;-61
2024/03/20 11:36:19;;;;;;;9.50;3.00;;;19.80;91.20;;;;;;4978926;28;20041;-61
2024/03/20 11:38:47;;;;;;;12.27;3.25;;;19.40;92.00;;;;;;4964137;28;20029;-61
2024/03/20 11:41:16;;;;;;;7.85;2.88;;;19.10;93.10;;;;;;4975663;28;20038;-61
2024/03/20 11:43:43;;;;;;;10.10;3.40;;;19.00;93.50;;;;;;4961964;28;20046;-60
2024/03/20 11:46:16;;;;;;;8.98;3.58;;;19.10;93.50;;;;;;4963548;28;20051;-62
2024/03/20 11:48:46;;;;;;;12.25;3.65;;;19.20;93.20;;;;;;4981217;28;20036;-61
2024/03/20 11:51:12;;;;;;;8.02;3.00;;;19.50;93.50;;;;;;4974486;28;20054;-61
2024/03/20 11:53:42;;;;;;;9.60;3.38;;;20.10;93.00;;;;;;4969586;28;20439;-61
2024/03/20 11:56:09;;;;;;;10.13;3.28;;;21.10;91.20;;;;;;4968698;28;20019;-61
2024/03/20 11:58:35;;;;;;;6.90;2.92;;;22.10;84.70;;;;;;4965126;28;20027;-61
2024/03/20 12:01:08;;;;;;;9.15;2.92;;;22.70;81.30;;;;;;4966886;28;20061;-61
2024/03/20 12:03:37;;;;;;;6.93;3.00;;;23.10;75.40;;;;;;4965628;28;20113;-61
2024/03/20 12:06:09;;;;;;;6.63;2.80;;;22.90;76.30;;;;;;4974246;28;20022;-61
2024/03/20 12:08:35;;;;;;;6.78;2.92;;;22.60;76.30;;;;;;4964175;28;20041;-61
2024/03/20 12:11:21;;;;;;;7.05;3.22;;;22.30;79.00;;;;;;4968020;28;20027;-62
2024/03/20 12:13:46;;;;;;;8.68;3.30;;;22.20;78.90;;;;;;4957590;28;20027;-61
2024/03/20 12:16:16;;;;;;;7.15;3.15;;;21.70;79.70;;;;;;4966893;28;20053;-62
2024/03/20 12:18:42;;;;;;;7.77;3.50;;;21.20;83.40;;;;;;4963491;28;20059;-61
2024/03/20 12:21:12;;;;;;;7.20;3.05;;;21.00;86.10;;;;;;4957890;28;20046;-62
2024/03/20 12:23:38;;;;;;;8.80;3.40;;;20.90;86.00;;;;;;4968678;28;20026;-61
2024/03/20 12:26:05;;;;;;;8.45;3.22;;;20.80;88.20;;;;;;4954490;28;20043;-61
2024/03/20 12:28:32;;;;;;;9.18;3.45;;;21.00;87.30;;;;;;4968309;28;20084;-61
2024/03/20 12:30:58;;;;;;;8.40;3.40;;;21.20;84.40;;;;;;4965307;28;20172;-62
2024/03/20 12:33:25;;;;;;;8.48;3.25;;;22.00;80.40;;;;;;4961356;28;20034;-62
2024/03/20 12:35:54;;;;;;;6.85;3.15;;;23.00;75.80;;;;;;4967383;28;20026;-62
2024/03/20 12:38:20;;;;;;;7.80;3.20;;;23.20;73.70;;;;;;4957215;28;20037;-61
2024/03/20 12:40:46;;;;;;;11.65;3.08;;;22.80;74.60;;;;;;4963963;28;20027;-61
2024/03/20 12:43:13;;;;;;;9.82;3.20;;;22.50;75.70;;;;;;4964978;28;20027;-61
2024/03/20 12:45:44;;;;;;;7.57;2.90;;;22.20;77.40;;;;;;4959597;28;20031;-62